Time;durP1;ratioP1;P1;durP2;ratioP2;P2;SDS_P1;SDS_P2;PMS_P1;PMS_P2;Temp;Humidity;BMP_temperature;BMP_pressure;BME280_temperature;BME280_humidity;BME280_pressure;Samples;Min_cycle;Max_cycle;Signal;HPM_P1;HPM_P2
2021/08/18 00:00:46;;;;;;;17.73;15.80;;;16.40;99.90;;;;;;5067421;28;20272;-91
2021/08/18 00:03:15;;;;;;;19.83;16.70;;;14.80;99.90;;;;;;5059092;28;20941;-91
2021/08/18 00:05:45;;;;;;;19.90;16.13;;;15.20;99.90;;;;;;5058205;28;20905;-91
2021/08/18 00:08:12;;;;;;;20.53;17.40;;;16.40;99.90;;;;;;5075200;28;20461;-91
2021/08/18 00:10:42;;;;;;;23.50;18.83;;;15.20;99.90;;;;;;5077081;28;20410;-92
2021/08/18 00:13:10;;;;;;;23.60;19.00;;;16.00;99.90;;;;;;5059371;28;20440;-92
2021/08/18 00:31:52;;;;;;;15.33;13.73;;;15.30;99.90;;;;;;5580085;22;20489;-92
2021/08/18 00:34:18;;;;;;;14.33;13.03;;;17.40;99.90;;;;;;5058485;28;21013;-91
2021/08/18 00:36:47;;;;;;;13.50;12.20;;;16.70;99.90;;;;;;5059541;28;20422;-91
2021/08/18 00:39:16;;;;;;;14.60;13.07;;;16.80;99.90;;;;;;5076910;28;20489;-91
2021/08/18 00:41:43;;;;;;;15.40;13.17;;;18.10;99.90;;;;;;5060186;28;20428;-90
2021/08/18 00:44:09;;;;;;;13.80;12.07;;;16.60;99.90;;;;;;5075867;28;20398;-92
2021/08/18 00:46:54;;;;;;;12.83;11.53;;;16.70;99.90;;;;;;5060243;28;20488;-92
2021/08/18 00:55:14;;;;;;;10.90;10.00;;;15.20;99.90;;;;;;5097165;22;20490;-91
2021/08/18 01:00:17;;;;;;;10.97;9.87;;;15.40;99.90;;;;;;5452393;23;20466;-92
2021/08/18 01:08:16;;;;;;;11.37;10.30;;;15.30;99.90;;;;;;5125537;22;20478;-91
2021/08/18 01:10:48;;;;;;;10.67;9.60;;;17.30;99.90;;;;;;5008410;28;20422;-92
2021/08/18 01:13:17;;;;;;;12.30;11.00;;;16.70;99.90;;;;;;5024587;28;20443;-92
2021/08/18 01:23:32;;;;;;;12.60;11.50;;;15.40;99.90;;;;;;5379302;22;20567;-92
2021/08/18 01:25:58;;;;;;;13.30;12.00;;;17.60;99.90;;;;;;5024702;28;20484;-91
2021/08/18 01:28:28;;;;;;;12.10;10.87;;;15.10;99.90;;;;;;5024369;28;20455;-91
2021/08/18 01:30:54;;;;;;;12.47;11.17;;;17.40;99.90;;;;;;5027584;28;20410;-92
2021/08/18 01:33:22;;;;;;;12.23;11.10;;;17.50;99.90;;;;;;5061499;28;20414;-90
2021/08/18 01:35:51;;;;;;;13.03;11.57;;;16.70;99.90;;;;;;5044778;28;20434;-92
2021/08/18 01:38:21;;;;;;;12.27;11.13;;;15.60;99.90;;;;;;5044440;28;20422;-91
2021/08/18 01:40:52;;;;;;;15.47;13.00;;;15.90;99.90;;;;;;5060355;28;20402;-91
2021/08/18 02:28:12;;;;;;;22.30;16.30;;;15.50;99.90;;;;;;5366906;23;20718;31
2021/08/18 02:33:13;;;;;;;21.83;16.10;;;15.50;99.90;;;;;;5361173;23;20491;-90
2021/08/18 02:35:42;;;;;;;22.67;19.67;;;16.60;99.90;;;;;;5018614;28;20400;-92
2021/08/18 02:38:09;;;;;;;22.90;19.07;;;17.20;99.90;;;;;;5001260;28;20196;-92
2021/08/18 02:40:35;;;;;;;26.90;20.97;;;16.50;99.90;;;;;;5018694;28;20408;-89
2021/08/18 02:43:01;;;;;;;25.43;20.60;;;17.00;99.90;;;;;;5002676;28;20425;-91
2021/08/18 03:06:36;;;;;;;40.80;25.50;;;15.70;99.90;;;;;;5095549;23;20860;-90
2021/08/18 03:09:01;;;;;;;40.60;27.17;;;16.30;99.90;;;;;;5001794;28;20455;-92
2021/08/18 03:19:20;;;;;;;38.80;26.00;;;15.70;99.90;;;;;;5017972;23;20495;-91
2021/08/18 03:21:47;;;;;;;40.27;28.93;;;14.70;99.90;;;;;;4982923;28;20418;-91
2021/08/18 03:24:13;;;;;;;37.77;27.40;;;17.30;99.90;;;;;;5000412;28;20472;-89
2021/08/18 03:26:40;;;;;;;39.50;26.47;;;;;;;;;;5451286;23;20466;-91
2021/08/18 03:29:09;;;;;;;39.73;27.50;;;16.00;99.90;;;;;;4995508;23;20226;-92
2021/08/18 03:31:35;;;;;;;40.03;26.20;;;15.70;99.90;;;;;;5541379;23;20476;-88
2021/08/18 03:34:09;;;;;;;45.90;28.50;;;17.50;99.90;;;;;;4981971;28;20424;-91
2021/08/18 03:36:35;;;;;;;38.77;27.87;;;16.50;99.90;;;;;;5053573;23;20321;-90
2021/08/18 03:39:03;;;;;;;41.17;26.77;;;15.70;99.90;;;;;;5017694;28;20409;-90
2021/08/18 03:41:28;;;;;;;42.33;29.60;;;15.50;99.90;;;;;;5110402;23;20233;-90
2021/08/18 03:43:56;;;;;;;41.87;27.90;;;15.60;99.90;;;;;;4985995;28;20424;-91
2021/08/18 03:46:25;;;;;;;43.27;28.70;;;15.60;99.90;;;;;;5018225;28;20197;-90
2021/08/18 03:48:51;;;;;;;44.07;28.60;;;15.60;99.90;;;;;;5162124;23;20946;-90
2021/08/18 03:51:18;;;;;;;40.30;25.83;;;15.70;99.90;;;;;;5007229;23;20502;-92
2021/08/18 04:04:05;;;;;;;46.33;28.67;;;15.50;99.90;;;;;;5903911;23;20475;-91
2021/08/18 04:14:23;;;;;;;40.80;27.07;;;15.80;99.90;;;;;;5307910;23;20481;-90
2021/08/18 04:23:18;;;;;;;37.03;25.87;;;15.60;99.90;;;;;;5774121;23;20479;-92
2021/08/18 04:26:14;;;;;;;42.57;28.83;;;15.60;99.90;;;;;;5820337;23;20484;-91
2021/08/18 04:28:40;;;;;;;41.53;28.20;;;16.50;99.90;;;;;;5210659;23;20475;-91
2021/08/18 04:31:06;;;;;;;37.80;26.40;;;16.50;99.90;;;;;;5016489;28;20440;-89
2021/08/18 04:36:08;;;;;;;35.70;25.87;;;15.60;99.90;;;;;;5049351;23;20224;-91
2021/08/18 04:38:34;;;;;;;36.83;25.33;;;16.50;99.90;;;;;;4997705;28;20433;-91
2021/08/18 04:41:00;;;;;;;34.33;25.07;;;;;;;;;;4999623;28;20425;-90
2021/08/18 04:43:31;;;;;;;39.40;25.67;;;15.50;99.90;;;;;;4999639;28;20162;-91
2021/08/18 04:45:57;;;;;;;39.43;26.00;;;15.90;99.90;;;;;;5014872;28;20814;-90
2021/08/18 04:48:26;;;;;;;43.00;28.00;;;17.30;99.90;;;;;;5015335;28;20463;-90
2021/08/18 04:50:51;;;;;;;35.77;24.77;;;14.90;99.90;;;;;;4996216;28;20659;-92
2021/08/18 04:53:17;;;;;;;45.97;26.20;;;16.90;99.90;;;;;;4996814;28;20436;-90
2021/08/18 04:55:44;;;;;;;40.93;25.73;;;14.80;99.90;;;;;;4995920;28;20170;-91
2021/08/18 04:58:12;;;;;;;33.70;22.53;;;16.90;99.90;;;;;;5010886;28;20256;-88
2021/08/18 05:00:38;;;;;;;27.73;21.47;;;15.50;99.90;;;;;;4995126;28;20429;-91
2021/08/18 05:03:04;;;;;;;25.93;19.20;;;;;;;;;;4994124;28;20488;-91
2021/08/18 05:05:30;;;;;;;16.90;14.13;;;16.90;99.90;;;;;;4993234;28;20429;-88
2021/08/18 05:07:59;;;;;;;18.63;13.50;;;17.00;99.90;;;;;;4995992;28;20509;-90
2021/08/18 05:10:24;;;;;;;14.60;13.10;;;15.40;99.90;;;;;;4993926;28;20422;-91
2021/08/18 05:12:50;;;;;;;12.10;10.90;;;15.20;99.90;;;;;;5010919;28;20409;-93
2021/08/18 05:15:16;;;;;;;14.27;12.77;;;15.60;99.90;;;;;;4993746;28;20412;-91
2021/08/18 05:17:44;;;;;;;13.13;11.40;;;;;;;;;;5012175;28;20177;-92
2021/08/18 05:20:10;;;;;;;12.33;9.87;;;15.60;99.90;;;;;;4997649;28;20162;-90
2021/08/18 05:22:36;;;;;;;14.50;11.27;;;16.10;99.90;;;;;;4992276;28;20436;-90
2021/08/18 05:25:04;;;;;;;12.20;11.10;;;16.50;99.90;;;;;;4993197;28;20432;-91
2021/08/18 05:30:01;;;;;;;12.30;11.27;;;15.60;99.90;;;;;;4969207;28;20462;-92
2021/08/18 05:32:28;;;;;;;14.10;12.60;;;15.80;99.90;;;;;;4954774;28;20501;-91
2021/08/18 05:37:33;;;;;;;15.30;12.70;;;15.50;99.90;;;;;;5006397;23;20257;-85
2021/08/18 05:40:07;;;;;;;13.23;12.10;;;15.60;99.90;;;;;;4975486;28;20496;-87
2021/08/18 05:42:35;;;;;;;12.90;11.70;;;15.90;99.90;;;;;;4987596;28;20480;-91
2021/08/18 05:45:10;;;;;;;12.30;11.00;;;15.80;99.90;;;;;;4989136;28;20420;-91
2021/08/18 05:47:36;;;;;;;11.40;10.47;;;16.20;99.90;;;;;;5005766;28;20468;-89
2021/08/18 05:50:04;;;;;;;10.50;9.57;;;;;;;;;;5162047;23;20478;-89
2021/08/18 05:52:30;;;;;;;10.60;9.70;;;15.80;99.90;;;;;;4950047;29;20250;-83
2021/08/18 05:55:00;;;;;;;8.90;8.30;;;16.50;99.90;;;;;;4965663;28;20422;-90
2021/08/18 05:57:30;;;;;;;9.37;8.57;;;15.30;99.90;;;;;;4952287;29;20621;-91
2021/08/18 05:59:57;;;;;;;8.43;7.77;;;16.00;99.90;;;;;;4968823;29;20429;-91
2021/08/18 06:02:25;;;;;;;9.13;8.20;;;15.90;99.90;;;;;;4955113;28;20464;-91
2021/08/18 06:04:50;;;;;;;9.37;8.17;;;15.80;99.90;;;;;;4952871;28;20442;-93
2021/08/18 06:07:19;;;;;;;8.40;7.70;;;17.30;99.90;;;;;;4934495;29;20879;-91
2021/08/18 06:09:45;;;;;;;7.20;6.70;;;16.50;99.90;;;;;;4951738;28;20446;-90
2021/08/18 06:12:11;;;;;;;8.13;7.63;;;;;;;;;;4933365;29;20427;-89
2021/08/18 06:14:37;;;;;;;9.00;8.40;;;15.90;99.90;;;;;;4953773;29;20203;-92
2021/08/18 06:17:03;;;;;;;8.93;8.30;;;;;;;;;;4954603;28;20423;-91
2021/08/18 06:19:31;;;;;;;9.47;8.57;;;15.90;99.90;;;;;;4949530;29;20415;-91
2021/08/18 06:21:59;;;;;;;10.17;8.43;;;16.90;99.90;;;;;;4961950;29;20449;-88
2021/08/18 06:24:40;;;;;;;8.87;8.13;;;15.80;99.90;;;;;;4956211;29;20434;-91
2021/08/18 06:27:08;;;;;;;10.67;9.70;;;18.30;99.90;;;;;;4956143;28;20470;-91
2021/08/18 06:29:35;;;;;;;9.50;8.70;;;18.40;99.90;;;;;;4949162;29;20520;-88
2021/08/18 06:32:06;;;;;;;9.43;8.70;;;16.50;99.90;;;;;;4968573;29;20430;-87
2021/08/18 06:34:32;;;;;;;8.50;7.90;;;16.00;99.90;;;;;;4957384;28;20450;-90
2021/08/18 06:37:04;;;;;;;9.17;8.47;;;16.40;99.90;;;;;;4956303;29;20425;-88
2021/08/18 06:39:40;;;;;;;8.67;7.90;;;16.40;99.90;;;;;;5089282;23;20496;-90
2021/08/18 06:42:05;;;;;;;9.13;8.23;;;18.10;99.90;;;;;;5008665;28;20577;-90
2021/08/18 06:44:32;;;;;;;8.50;8.00;;;16.60;99.90;;;;;;4993960;28;20550;-91
2021/08/18 06:47:05;;;;;;;9.37;8.57;;;16.20;99.90;;;;;;4991552;28;20285;-91
2021/08/18 06:52:16;;;;;;;11.23;9.83;;;16.00;99.90;;;;;;5062768;23;20480;-91
2021/08/18 06:54:48;;;;;;;11.70;10.80;;;17.40;99.90;;;;;;4995380;28;20428;-89
2021/08/18 06:57:15;;;;;;;13.77;12.47;;;14.70;99.90;;;;;;4992511;28;20562;-91
2021/08/18 06:59:44;;;;;;;13.67;12.37;;;18.10;99.90;;;;;;4982353;28;20435;-90
2021/08/18 07:02:11;;;;;;;19.43;13.23;;;16.40;99.90;;;;;;4995544;28;20421;-89
2021/08/18 07:04:36;;;;;;;13.27;11.87;;;14.70;99.90;;;;;;5013869;28;20436;-89
2021/08/18 07:07:02;;;;;;;13.80;12.50;;;;;;;;;;4977406;28;20445;-90
2021/08/18 07:09:28;;;;;;;15.20;13.77;;;16.50;99.90;;;;;;4995713;28;20159;-87
2021/08/18 07:11:56;;;;;;;14.50;13.20;;;16.30;99.90;;;;;;4974577;28;20436;-88
2021/08/18 07:14:31;;;;;;;16.10;14.50;;;16.60;99.90;;;;;;4968773;28;20181;-90
2021/08/18 07:17:02;;;;;;;18.20;14.87;;;15.70;99.90;;;;;;4969161;28;20845;-90
2021/08/18 07:19:31;;;;;;;17.40;15.37;;;16.60;99.90;;;;;;4968216;28;20457;-90
2021/08/18 07:21:57;;;;;;;18.00;15.80;;;17.10;99.90;;;;;;4968461;28;20433;-89
2021/08/18 07:24:25;;;;;;;17.40;15.47;;;16.80;99.90;;;;;;4975412;28;20422;-91
2021/08/18 07:26:52;;;;;;;21.90;18.63;;;19.80;99.90;;;;;;4971695;28;20229;-91
2021/08/18 07:29:18;;;;;;;22.47;19.97;;;18.00;99.90;;;;;;4984625;28;20417;-89
2021/08/18 07:31:43;;;;;;;21.93;19.53;;;16.80;99.90;;;;;;4965949;28;20509;-90
2021/08/18 07:34:25;;;;;;;29.30;23.90;;;18.10;99.90;;;;;;4970988;28;20201;-91
2021/08/18 07:36:52;;;;;;;27.37;21.13;;;17.20;99.90;;;;;;4965336;28;20429;-86
2021/08/18 07:39:17;;;;;;;26.40;22.83;;;16.30;99.90;;;;;;4965929;28;20504;-89
2021/08/18 07:41:43;;;;;;;24.33;20.73;;;18.50;99.90;;;;;;4982380;28;20456;-89
2021/08/18 07:44:12;;;;;;;24.10;21.17;;;18.70;99.90;;;;;;4966491;28;20658;-93
2021/08/18 07:46:38;;;;;;;27.53;21.07;;;17.20;99.90;;;;;;4934986;28;20201;-89
2021/08/18 07:49:34;;;;;;;29.00;24.17;;;21.30;99.90;;;;;;4965477;28;20442;-88
2021/08/18 07:52:00;;;;;;;30.47;24.97;;;17.50;99.90;;;;;;4969203;28;20421;-89
2021/08/18 07:54:29;;;;;;;29.90;24.70;;;17.20;99.90;;;;;;4992026;28;20470;-89
2021/08/18 07:57:00;;;;;;;28.93;24.97;;;17.30;99.90;;;;;;5021858;28;20203;-89
2021/08/18 07:59:33;;;;;;;29.63;25.97;;;19.40;99.90;;;;;;5003176;28;20496;-89
2021/08/18 08:01:59;;;;;;;56.97;36.87;;;17.20;99.90;;;;;;5004098;28;20871;-88
2021/08/18 08:04:27;;;;;;;29.40;25.60;;;18.00;99.90;;;;;;5023169;28;20408;-89
2021/08/18 08:06:52;;;;;;;31.30;26.60;;;18.60;99.90;;;;;;4988704;28;20616;-87
2021/08/18 08:09:22;;;;;;;32.67;27.93;;;19.50;99.90;;;;;;5024735;28;20498;-89
2021/08/18 08:11:51;;;;;;;29.50;26.27;;;18.40;99.90;;;;;;5005537;28;20188;-90
2021/08/18 08:14:16;;;;;;;26.57;22.23;;;17.50;99.90;;;;;;5024996;28;20415;-90
2021/08/18 08:16:43;;;;;;;27.27;24.37;;;17.90;99.90;;;;;;5005704;28;20418;-90
2021/08/18 08:19:09;;;;;;;26.67;23.87;;;17.90;99.90;;;;;;5002948;28;20255;-90
2021/08/18 08:21:36;;;;;;;27.57;24.17;;;17.70;99.90;;;;;;4627159;28;10000572;-91
2021/08/18 08:24:01;;;;;;;28.53;25.53;;;20.10;99.90;;;;;;4999404;28;20192;-89
2021/08/18 08:26:27;;;;;;;30.10;25.00;;;18.90;99.90;;;;;;5019851;28;20423;-90
2021/08/18 08:28:54;;;;;;;27.43;24.00;;;18.20;99.90;;;;;;5025567;28;20173;-89
2021/08/18 08:31:28;;;;;;;26.10;22.60;;;17.80;99.90;;;;;;5008468;28;20176;-90
2021/08/18 08:33:55;;;;;;;24.00;21.50;;;18.30;99.90;;;;;;5025327;28;20415;-92
2021/08/18 08:36:21;;;;;;;24.47;21.70;;;18.40;99.90;;;;;;5007388;28;20419;-90
2021/08/18 08:38:47;;;;;;;26.13;23.33;;;20.20;99.90;;;;;;5026441;28;20184;-91
2021/08/18 08:41:15;;;;;;;23.50;21.00;;;19.00;99.90;;;;;;5005587;28;20459;-91
2021/08/18 08:43:44;;;;;;;22.03;19.67;;;19.60;99.90;;;;;;4968998;28;20715;-89
2021/08/18 08:46:10;;;;;;;22.37;20.00;;;18.30;99.90;;;;;;4984190;28;20831;-91
2021/08/18 08:48:39;;;;;;;20.40;18.20;;;19.00;99.90;;;;;;4981218;28;20495;-89
2021/08/18 08:51:05;;;;;;;21.70;19.50;;;20.50;99.90;;;;;;4966129;28;20414;-87
2021/08/18 08:53:32;;;;;;;21.80;19.60;;;19.10;99.90;;;;;;4966228;28;20469;-88
2021/08/18 08:55:58;;;;;;;20.87;18.50;;;18.70;99.30;;;;;;4982499;28;20927;-89
2021/08/18 08:58:27;;;;;;;21.20;19.20;;;19.40;99.90;;;;;;4965001;28;20477;-88
2021/08/18 09:00:52;;;;;;;22.47;20.17;;;20.60;99.90;;;;;;4964443;28;20205;-87
2021/08/18 09:03:22;;;;;;;23.87;21.53;;;22.50;99.80;;;;;;4981671;28;20476;-89
2021/08/18 09:05:49;;;;;;;21.73;19.60;;;20.20;96.60;;;;;;4980582;28;20166;-86
2021/08/18 09:08:17;;;;;;;21.93;19.93;;;20.00;95.30;;;;;;5011948;28;20459;-90
2021/08/18 09:11:15;;;;;;;22.70;20.50;;;19.00;93.90;;;;;;5019218;28;20407;-88
2021/08/18 09:13:49;;;;;;;23.47;21.20;;;22.10;95.50;;;;;;5010770;28;20428;-89
2021/08/18 09:16:20;;;;;;;23.73;21.40;;;21.30;93.70;;;;;;5004230;28;20415;-88
2021/08/18 09:18:56;;;;;;;26.10;23.43;;;22.60;94.60;;;;;;5002228;28;20464;-88
2021/08/18 09:21:42;;;;;;;22.40;20.20;;;20.70;94.80;;;;;;5003508;28;20415;-91
2021/08/18 09:24:22;;;;;;;24.63;22.43;;;19.90;94.60;;;;;;5021878;28;20907;-89
2021/08/18 09:27:06;;;;;;;25.90;23.40;;;19.80;95.00;;;;;;5005914;28;20457;-88
2021/08/18 09:29:36;;;;;;;24.83;22.37;;;19.60;94.80;;;;;;5022685;28;20423;-86
2021/08/18 09:32:25;;;;;;;24.77;22.27;;;19.50;95.80;;;;;;5021903;28;20828;-87
2021/08/18 09:35:02;;;;;;;25.30;22.80;;;19.40;95.30;;;;;;4669335;28;10000357;-89
2021/08/18 09:37:29;;;;;;;21.70;19.50;;;19.30;96.40;;;;;;4983443;28;20652;-92
2021/08/18 09:39:56;;;;;;;27.03;24.27;;;19.30;97.30;;;;;;4999573;28;20499;-89
2021/08/18 09:42:34;;;;;;;25.10;22.60;;;20.70;98.90;;;;;;4981394;28;20436;-90
2021/08/18 09:45:21;;;;;;;24.47;22.17;;;19.10;98.70;;;;;;4997987;28;20820;-88
2021/08/18 09:48:12;;;;;;;23.97;21.47;;;19.00;97.20;;;;;;5000344;28;20504;-86
2021/08/18 09:50:47;;;;;;;25.43;22.73;;;19.20;96.90;;;;;;4981485;28;20416;-89
2021/08/18 09:53:36;;;;;;;22.80;20.50;;;19.10;98.10;;;;;;4981796;28;20464;-83
2021/08/18 09:56:07;;;;;;;21.63;19.40;;;19.00;97.80;;;;;;4999926;28;20409;-88
2021/08/18 09:58:38;;;;;;;18.80;16.80;;;19.00;97.10;;;;;;4997435;28;20424;-88
2021/08/18 10:01:14;;;;;;;18.20;16.50;;;19.60;98.20;;;;;;5000724;28;20474;-89
2021/08/18 10:03:48;;;;;;;20.13;18.23;;;18.40;96.40;;;;;;5000077;28;20419;-88
2021/08/18 10:06:15;;;;;;;18.77;16.97;;;20.20;99.10;;;;;;4982399;28;20409;-89
2021/08/18 10:08:43;;;;;;;16.20;14.50;;;18.50;98.20;;;;;;5005655;28;20967;-85
2021/08/18 10:11:17;;;;;;;16.27;14.87;;;20.70;99.60;;;;;;4994840;28;20583;-91
2021/08/18 10:13:55;;;;;;;18.53;16.93;;;16.60;96.60;;;;;;5007815;28;20436;-89
2021/08/18 10:16:20;;;;;;;17.57;15.87;;;18.60;98.30;;;;;;4969023;28;20591;-92
2021/08/18 10:18:55;;;;;;;17.47;16.03;;;18.00;99.60;;;;;;4970803;28;20464;-85
2021/08/18 10:21:27;;;;;;;15.50;14.20;;;18.30;98.00;;;;;;4975805;28;20232;-87
2021/08/18 10:24:03;;;;;;;14.57;13.40;;;19.40;98.80;;;;;;4978659;28;20425;-86
2021/08/18 10:26:32;;;;;;;15.87;14.30;;;18.60;97.80;;;;;;4959588;28;20428;-85
2021/08/18 10:29:19;;;;;;;15.93;14.57;;;18.70;98.60;;;;;;4623830;28;9999751;-84
2021/08/18 10:31:48;;;;;;;13.20;12.20;;;17.40;96.60;;;;;;4974715;28;20170;-85
2021/08/18 10:34:25;;;;;;;12.77;11.77;;;18.80;97.10;;;;;;4975374;28;20581;-86
2021/08/18 10:37:05;;;;;;;15.70;14.47;;;18.90;97.00;;;;;;4982489;28;20412;-90
2021/08/18 10:39:37;;;;;;;11.40;10.60;;;19.10;96.70;;;;;;4964130;28;20425;-89
2021/08/18 10:42:38;;;;;;;14.37;13.17;;;18.90;96.50;;;;;;4964196;28;20425;-85
2021/08/18 10:45:20;;;;;;;13.27;12.27;;;20.20;99.30;;;;;;4965681;28;20422;-89
2021/08/18 10:47:48;;;;;;;13.20;12.20;;;19.10;99.60;;;;;;4963795;28;20568;-90
2021/08/18 10:50:26;;;;;;;12.80;11.97;;;19.40;97.90;;;;;;4979937;28;20425;-86
2021/08/18 10:52:53;;;;;;;11.30;10.57;;;19.10;97.70;;;;;;4963548;28;20492;-87
2021/08/18 10:55:25;;;;;;;9.30;8.70;;;17.30;95.20;;;;;;4962867;28;20437;-87
2021/08/18 10:58:09;;;;;;;9.40;8.90;;;18.70;94.40;;;;;;4965159;28;20421;-90
2021/08/18 11:00:42;;;;;;;9.40;8.70;;;19.90;94.90;;;;;;4966694;28;20445;-89
2021/08/18 11:03:33;;;;;;;17.77;16.27;;;22.30;93.50;;;;;;4964880;28;20430;-89
2021/08/18 11:06:16;;;;;;;9.80;9.10;;;20.80;91.60;;;;;;4968819;28;20543;-94
2021/08/18 11:08:53;;;;;;;;;;;;;;;;;;;;;
2021/08/18 11:11:22;;;;;;;7.93;7.53;;;22.70;91.90;;;;;;4989170;28;20829;-90
2021/08/18 11:14:33;;;;;;;8.00;7.70;;;21.60;85.50;;;;;;5002060;28;21119;-90
2021/08/18 11:17:06;;;;;;;41.33;37.83;;;21.70;80.30;;;;;;4999440;28;20483;-86
2021/08/18 11:19:47;;;;;;;7.20;6.70;;;21.70;81.00;;;;;;4985007;28;20432;-89
2021/08/18 11:22:17;;;;;;;7.13;6.73;;;22.60;79.80;;;;;;4988413;28;20431;-87
2021/08/18 11:24:54;;;;;;;7.83;7.53;;;21.90;75.40;;;;;;4986116;28;20409;-91
2021/08/18 11:27:21;;;;;;;7.40;7.00;;;21.40;76.20;;;;;;5005732;28;20460;-91
2021/08/18 11:29:49;;;;;;;10.90;10.00;;;21.80;80.60;;;;;;4985930;28;20420;-89
2021/08/18 11:32:25;;;;;;;6.60;6.17;;;23.60;86.30;;;;;;4975525;28;20452;-89
2021/08/18 11:35:02;;;;;;;5.47;5.27;;;23.10;80.20;;;;;;5012721;28;20431;-90
2021/08/18 11:37:28;;;;;;;5.63;5.23;;;21.20;81.60;;;;;;5004801;28;20506;-92
2021/08/18 11:39:57;;;;;;;5.00;4.80;;;23.20;83.40;;;;;;5002628;28;20448;-92
2021/08/18 11:42:25;;;;;;;5.50;5.00;;;20.80;79.50;;;;;;4989883;28;20200;-88
2021/08/18 11:45:15;;;;;;;5.07;4.97;;;23.80;83.50;;;;;;5003068;28;20419;-84
2021/08/18 11:47:43;;;;;;;4.30;4.20;;;21.30;76.20;;;;;;5005694;28;20491;-91
2021/08/18 11:50:17;;;;;;;4.43;4.03;;;23.50;76.60;;;;;;5002125;28;20411;-90
2021/08/18 11:52:57;;;;;;;3.60;3.50;;;21.20;75.10;;;;;;5005089;28;20459;-89
2021/08/18 11:55:29;;;;;;;3.90;3.80;;;21.60;73.30;;;;;;5002875;28;20529;-89
2021/08/18 11:58:02;;;;;;;4.00;3.80;;;21.40;72.80;;;;;;5001500;28;20470;-87
2021/08/18 12:00:32;;;;;;;3.80;3.70;;;21.20;72.00;;;;;;5005079;28;20487;-87
2021/08/18 12:02:59;;;;;;;3.50;3.50;;;23.40;78.30;;;;;;5008101;28;20463;-88
2021/08/18 12:05:28;;;;;;;3.83;3.70;;;22.80;74.00;;;;;;5022836;28;20410;-91
2021/08/18 12:08:14;;;;;;;3.40;3.30;;;22.40;74.40;;;;;;5022656;28;20467;-94
2021/08/18 12:10:45;;;;;;;2.60;2.50;;;21.90;73.40;;;;;;4989257;28;20424;-91
2021/08/18 12:13:22;;;;;;;3.17;3.17;;;21.60;69.70;;;;;;4984691;28;20586;-90
2021/08/18 12:15:50;;;;;;;4.67;2.87;;;22.90;75.60;;;;;;4985940;28;20907;-88
2021/08/18 12:18:28;;;;;;;3.63;3.53;;;21.20;71.20;;;;;;4969868;28;20425;-90
2021/08/18 12:21:14;;;;;;;3.10;3.10;;;22.10;73.80;;;;;;4986487;28;20428;-89
2021/08/18 12:23:43;;;;;;;2.97;2.97;;;21.10;72.00;;;;;;4965817;28;20421;-91
2021/08/18 12:26:27;;;;;;;3.50;3.40;;;21.00;72.80;;;;;;4971619;28;20425;-87
2021/08/18 12:28:55;;;;;;;3.53;3.43;;;21.20;75.90;;;;;;4964373;28;20479;-92
2021/08/18 12:31:21;;;;;;;3.60;3.60;;;21.00;74.70;;;;;;4646817;28;10000339;-90
2021/08/18 12:34:09;;;;;;;3.60;3.40;;;21.80;77.90;;;;;;5002843;28;20764;-89
2021/08/18 12:36:36;;;;;;;4.10;4.00;;;21.30;71.50;;;;;;5003572;28;20446;-90
2021/08/18 12:39:04;;;;;;;4.47;4.37;;;23.10;74.70;;;;;;5022730;28;20416;-89
2021/08/18 12:41:33;;;;;;;5.10;5.00;;;22.80;72.50;;;;;;5020246;28;20549;-90
2021/08/18 12:44:12;;;;;;;4.67;4.37;;;22.20;72.00;;;;;;5003982;28;20430;-90
2021/08/18 12:46:43;;;;;;;5.13;5.03;;;22.90;70.30;;;;;;5014290;28;20790;-91
2021/08/18 12:49:29;;;;;;;6.47;6.10;;;23.90;72.20;;;;;;4972768;28;20448;-91
2021/08/18 12:51:56;;;;;;;5.80;5.60;;;20.70;67.20;;;;;;4999402;28;20444;-89
2021/08/18 12:54:24;;;;;;;5.50;5.30;;;23.50;68.60;;;;;;4982879;28;20472;-87
2021/08/18 12:56:51;;;;;;;6.17;5.87;;;22.00;61.80;;;;;;5002118;28;20432;-91
2021/08/18 12:59:19;;;;;;;6.40;6.10;;;24.70;66.10;;;;;;4982910;28;20459;-92
2021/08/18 13:01:50;;;;;;;6.40;6.00;;;24.00;70.70;;;;;;4991879;28;20420;-90
2021/08/18 13:04:26;;;;;;;6.40;5.90;;;22.90;70.40;;;;;;4992549;28;20416;-90
2021/08/18 13:06:52;;;;;;;7.13;6.63;;;22.60;66.90;;;;;;5007313;28;20457;-86
2021/08/18 13:09:18;;;;;;;7.90;7.30;;;24.50;74.60;;;;;;5008719;28;20452;-92
2021/08/18 13:11:45;;;;;;;5.73;5.33;;;19.40;62.20;;;;;;4990559;28;20420;-91
2021/08/18 13:14:11;;;;;;;5.50;5.13;;;20.70;67.20;;;;;;5008041;28;20176;-90
2021/08/18 13:16:38;;;;;;;6.17;5.87;;;20.90;66.70;;;;;;4990111;28;20408;-92
2021/08/18 13:19:07;;;;;;;6.13;5.83;;;22.20;71.60;;;;;;5007150;28;20177;-90
2021/08/18 13:21:32;;;;;;;6.70;6.40;;;23.40;75.50;;;;;;4989524;28;20436;-91
2021/08/18 13:23:58;;;;;;;6.70;6.40;;;21.90;70.10;;;;;;5006365;28;20431;-89
2021/08/18 13:26:24;;;;;;;5.90;5.70;;;22.70;71.70;;;;;;4992018;28;20181;-90
2021/08/18 13:29:00;;;;;;;8.30;7.70;;;23.10;76.50;;;;;;4993428;28;20208;-86
2021/08/18 13:31:29;;;;;;;7.00;6.70;;;22.00;68.90;;;;;;5014723;28;20184;-89
2021/08/18 13:33:56;;;;;;;5.93;5.63;;;23.60;70.10;;;;;;5002550;28;20440;-89
2021/08/18 13:36:22;;;;;;;6.93;6.57;;;22.40;69.10;;;;;;5014421;28;20403;-93
2021/08/18 13:38:48;;;;;;;6.80;6.47;;;22.10;73.60;;;;;;4975108;28;20421;-90
2021/08/18 13:41:14;;;;;;;9.03;7.27;;;21.90;72.30;;;;;;4992852;28;20431;-90
2021/08/18 13:43:52;;;;;;;7.67;7.27;;;23.40;72.50;;;;;;4992490;28;20320;-93
2021/08/18 13:46:18;;;;;;;7.63;7.17;;;22.10;71.30;;;;;;4958955;28;20475;-91
2021/08/18 13:49:11;;;;;;;8.70;8.10;;;23.80;72.20;;;;;;4994860;28;20507;-90
2021/08/18 13:51:40;;;;;;;7.93;7.43;;;24.00;73.30;;;;;;4975969;28;20417;-87
2021/08/18 13:54:11;;;;;;;8.00;7.50;;;21.90;69.40;;;;;;4978573;28;20481;-91
2021/08/18 13:56:38;;;;;;;8.40;7.90;;;21.60;74.10;;;;;;4968542;28;20467;-91
2021/08/18 13:59:09;;;;;;;9.47;8.77;;;21.50;71.60;;;;;;4955252;29;20530;-93
2021/08/18 14:01:35;;;;;;;10.53;7.20;;;23.50;75.60;;;;;;4974678;28;20422;-91
2021/08/18 14:04:01;;;;;;;6.67;6.23;;;23.70;76.00;;;;;;4978922;28;20445;-88
2021/08/18 14:06:28;;;;;;;7.27;6.90;;;23.10;74.90;;;;;;4975154;28;20413;-90
2021/08/18 14:08:55;;;;;;;7.17;6.87;;;23.50;75.50;;;;;;4973527;28;20604;-92
2021/08/18 14:11:22;;;;;;;7.30;6.90;;;22.60;78.80;;;;;;4972934;28;20457;-89
2021/08/18 14:14:10;;;;;;;8.53;8.03;;;21.70;73.60;;;;;;4990711;28;20417;-90
2021/08/18 14:16:45;;;;;;;8.03;7.40;;;23.80;81.90;;;;;;4972111;28;20410;-93
2021/08/18 14:19:44;;;;;;;8.33;7.83;;;20.50;78.70;;;;;;4990838;28;20397;-95
2021/08/18 14:22:10;;;;;;;7.57;7.10;;;20.60;75.70;;;;;;5006456;23;20472;-91
2021/08/18 14:24:37;;;;;;;7.97;7.57;;;23.30;84.20;;;;;;4972449;28;20521;-91
2021/08/18 14:27:02;;;;;;;9.70;9.00;;;20.70;80.10;;;;;;4947570;29;21079;-88
2021/08/18 14:29:28;;;;;;;8.67;8.27;;;21.10;81.20;;;;;;4606932;28;10000939;-85
2021/08/18 14:31:54;;;;;;;9.90;9.20;;;20.40;78.80;;;;;;4940028;29;20171;-88
2021/08/18 14:34:20;;;;;;;10.47;9.53;;;18.30;76.50;;;;;;4936670;29;20459;-87
2021/08/18 14:36:53;;;;;;;9.00;8.40;;;20.30;79.40;;;;;;4929037;29;20238;-92
2021/08/18 14:39:20;;;;;;;9.30;8.73;;;20.20;80.60;;;;;;4929392;29;20428;-90
2021/08/18 14:41:46;;;;;;;9.23;8.73;;;19.90;80.70;;;;;;4921067;29;20411;-85
2021/08/18 14:44:12;;;;;;;9.77;9.17;;;19.90;81.90;;;;;;4919733;29;20431;-87
2021/08/18 14:46:38;;;;;;;9.83;8.93;;;21.00;85.70;;;;;;4920799;29;20804;-87
2021/08/18 14:49:04;;;;;;;10.50;9.70;;;22.40;86.40;;;;;;4937125;29;20784;-86
2021/08/18 14:51:30;;;;;;;10.30;9.60;;;20.50;81.70;;;;;;4937442;29;20175;-85
2021/08/18 14:53:57;;;;;;;10.33;9.63;;;20.50;81.40;;;;;;4947033;29;20181;-90
2021/08/18 14:56:22;;;;;;;11.20;10.30;;;18.70;79.40;;;;;;4935452;29;20468;-91
2021/08/18 14:58:49;;;;;;;10.37;9.63;;;20.40;83.50;;;;;;4928463;29;20446;-92
2021/08/18 15:01:15;;;;;;;8.97;8.40;;;19.30;87.00;;;;;;4915424;29;20217;-90
2021/08/18 15:03:49;;;;;;;9.97;9.37;;;21.00;83.40;;;;;;4950209;28;20470;-93
2021/08/18 15:06:17;;;;;;;11.87;10.93;;;19.50;80.50;;;;;;4966416;29;20182;-92
2021/08/18 15:08:43;;;;;;;11.80;10.60;;;20.10;86.00;;;;;;4947284;29;20473;-89
2021/08/18 15:11:10;;;;;;;10.10;9.20;;;21.40;86.20;;;;;;4951597;29;20430;-92
2021/08/18 15:13:53;;;;;;;22.97;17.23;;;18.90;80.50;;;;;;4948592;29;20185;-91
2021/08/18 15:16:24;;;;;;;10.70;9.90;;;20.70;88.80;;;;;;4947238;29;20878;-89
2021/08/18 15:18:50;;;;;;;11.20;10.40;;;21.00;82.90;;;;;;4964400;29;20894;-87
2021/08/18 15:21:31;;;;;;;10.77;10.07;;;22.80;86.40;;;;;;4965765;28;20433;-94
2021/08/18 15:24:05;;;;;;;10.93;10.20;;;20.90;80.20;;;;;;4965126;28;20647;-90